Thursday, August 21, 2014
20:05 UTC
  |  Log In   |  Register Free
Airport Search:

Heart Of Georgia Regional Airport
(KEZM)

FAA data valid effective July 24, 2014 until September 18, 2014 (unless otherwise noted).

 
 
 
 
 
 
 
 
 
 
 
 
 
 

Current Aviation Weather for Heart Of Georgia Regional Airport (KEZM)

The most recent METAR observation for KEZM was updated at: 1835 UTC
METAR Summary (Translated METAR)
KEZM
281835Z AUTO 25010G15KT 10SM VCTS SCT040 34/26 A2993 RMK AO2 LTG DSNT SE THRU SW T03400255
KDBN
(22.1 nm NE from KEZM)
281835Z AUTO 27011G18KT 10SM SCT043 SCT060 SCT080 33/25 A2991 RMK AO2 LTG DSNT NE THRU SW
TAF Summary (Translated TAF)
KWRB
(34.6 nm NW from KEZM)
2113/2219 31009KT 9999 SCT040 SCT250 QNH3000INS BECMG 2205/2206 VRB06KT 9999 SKC QNH3008INS TX37/2118Z TN21/2210Z
  Airport Weather Conditions for KEZM

 Current Weather at EZM
94° F
Fair
Northwest winds at 3.5 mph
EZM NOAA Radar

Pressure: 30.11 in
Humidity: 58%
Wind: Northwest at 3.5 MPH (3 KT)
Dew Point: 77.0°F
Visibility: 10.00 mi


Airport Weather Forecast for KEZM

Translated METAR and TAF for KEZM
Translated METAR for KEZM (1959 UTC 21 August 2014)
found at http://aviationweather.gov/adds/metars/
 
METAR text: KEZM 211935Z AUTO 00000KT 10SM CLR 35/24 A3010 RMK AO2 T03510242
Conditions at: KEZM (EASTMAN , GA, US) observed 1935 UTC 21 August 2014
Temperature: 35.1°C (95°F)
Dewpoint: 24.2°C (76°F) [RH = 53%]
Pressure (altimeter): 30.10 inches Hg (1019.4 mb)
Winds: calm
Visibility: 10 or more miles (16+ km)
Ceiling: at least 12,000 feet AGL
Clouds: sky clear below 12,000 feet AGL
Weather: automated observation with no human augmentation;
there may or may not be significant weather present at this time
Translated TAF for KEZM

There is no translated TAF available for this airport

Find All Airport Services Find A Hotel Find A Rental Car Find A Golf Course Find A Restaurant $100 Hamburger



FBO's on the Field
FBO Company Facility Photos Services Transportation Aviation Fuel Prices: Prices include tax
Catering Weather Repair Courtesy Rental Type 100LL JetA JetA+ MOGAS 8087
 
Heart of Georgia Regional Airport

This FBO has not yet been rated
FS:Phillips66
Last Updated: Jul-23
Login to update fuel prices
SS:
Contact Heart of Georgia Regional AirportMore FBO Information
 
Add another FBO Facility Photos Catering Weather Repair Courtesy Rental Type 100LL JetA JetA+ MOGAS 8087
Services Transportation Aviation Fuel Prices: Prices include tax


GlobalAir.com Airport Resource Center model-print
model-print
model-print
model-print